createdAt,value
2022-09-15T00:01:12.325Z,13.50
2022-09-15T00:03:40.288Z,13.60
2022-09-15T00:06:09.387Z,13.50
2022-09-15T00:08:37.485Z,13.60
2022-09-15T00:11:10.094Z,13.60
2022-09-15T00:13:39.970Z,13.50
2022-09-15T00:16:11.597Z,13.60
2022-09-15T00:18:42.240Z,13.50
2022-09-15T00:21:12.919Z,13.50
2022-09-15T00:23:40.840Z,13.50
2022-09-15T00:26:14.407Z,13.40
2022-09-15T00:28:43.111Z,13.40
2022-09-15T00:31:13.553Z,13.50
2022-09-15T00:33:42.351Z,13.50
2022-09-15T00:36:12.735Z,13.50
2022-09-15T00:38:41.205Z,13.50
2022-09-15T00:41:12.396Z,13.50
2022-09-15T00:43:46.843Z,13.50
2022-09-15T00:46:15.728Z,13.50
2022-09-15T00:48:49.200Z,13.50
2022-09-15T00:51:22.224Z,13.50
2022-09-15T00:53:51.762Z,13.40
2022-09-15T00:56:22.639Z,13.50
2022-09-15T00:58:54.508Z,13.50
2022-09-15T01:01:24.174Z,13.50
2022-09-15T01:03:52.449Z,13.50
2022-09-15T01:06:32.677Z,13.60
2022-09-15T01:09:06.804Z,13.60
2022-09-15T01:11:38.174Z,13.60
2022-09-15T01:14:06.290Z,13.60
2022-09-15T01:17:03.960Z,13.60
2022-09-15T01:20:10.142Z,13.60
2022-09-15T01:22:48.584Z,13.60
2022-09-15T01:25:36.238Z,13.60
2022-09-15T01:28:49.097Z,13.60
2022-09-15T01:31:25.752Z,13.70
2022-09-15T01:33:58.232Z,13.70
2022-09-15T01:36:33.629Z,13.70
2022-09-15T01:39:05.900Z,13.80
2022-09-15T01:41:37.682Z,13.90
2022-09-15T01:44:10.193Z,13.90
2022-09-15T01:46:46.851Z,13.80
2022-09-15T01:49:19.441Z,13.80
2022-09-15T01:51:51.736Z,13.80
2022-09-15T01:54:23.316Z,13.80
2022-09-15T01:56:51.250Z,13.80
2022-09-15T01:59:19.242Z,13.80
2022-09-15T02:01:54.331Z,13.80
2022-09-15T02:04:29.627Z,13.90
2022-09-15T02:07:04.155Z,13.80
2022-09-15T02:09:37.815Z,13.90
2022-09-15T02:12:12.397Z,13.90
2022-09-15T02:14:49.131Z,13.90
2022-09-15T02:17:21.795Z,13.90
2022-09-15T02:19:55.957Z,13.90
2022-09-15T02:22:27.105Z,13.90
2022-09-15T02:25:03.062Z,13.90
2022-09-15T02:27:34.282Z,13.90
2022-09-15T02:30:08.964Z,13.90
2022-09-15T02:32:43.227Z,13.90
2022-09-15T02:35:13.224Z,13.90
2022-09-15T02:37:41.201Z,13.80
2022-09-15T02:40:10.268Z,13.90
2022-09-15T02:42:39.119Z,13.90
2022-09-15T02:45:08.229Z,13.90
2022-09-15T02:47:36.213Z,13.90
2022-09-15T02:50:06.520Z,13.90
2022-09-15T02:52:34.455Z,13.90
2022-09-15T02:55:02.481Z,14.00
2022-09-15T02:57:30.441Z,14.00
2022-09-15T03:00:14.652Z,14.00
2022-09-15T03:02:43.716Z,14.00
2022-09-15T03:05:14.299Z,14.00
2022-09-15T03:07:42.499Z,14.00
2022-09-15T03:10:12.068Z,13.90
2022-09-15T03:12:41.345Z,13.90
2022-09-15T03:15:10.991Z,13.90
2022-09-15T03:17:41.593Z,13.90
2022-09-15T03:20:13.496Z,13.90
2022-09-15T03:22:41.659Z,13.90
2022-09-15T03:25:10.592Z,13.90
2022-09-15T03:27:38.973Z,13.90
2022-09-15T03:30:09.148Z,13.90
2022-09-15T03:32:37.625Z,13.90
2022-09-15T03:35:07.154Z,13.90
2022-09-15T03:37:36.985Z,13.90
2022-09-15T03:40:05.615Z,13.90
2022-09-15T03:42:33.577Z,13.90
2022-09-15T03:45:01.626Z,13.90
2022-09-15T03:47:29.538Z,14.00
2022-09-15T03:49:57.446Z,13.90
2022-09-15T03:52:28.722Z,13.90
2022-09-15T03:54:58.013Z,13.90
2022-09-15T03:57:26.185Z,13.90
2022-09-15T03:59:54.262Z,13.90
2022-09-15T04:02:22.270Z,13.90
2022-09-15T04:04:50.317Z,13.90
2022-09-15T04:07:18.369Z,13.90
2022-09-15T04:09:46.276Z,13.90
2022-09-15T04:12:15.583Z,13.90
2022-09-15T04:14:43.847Z,13.80
2022-09-15T04:17:11.751Z,13.90
2022-09-15T04:19:40.647Z,13.90
2022-09-15T04:22:13.243Z,13.90
2022-09-15T04:24:44.034Z,14.00
2022-09-15T04:27:12.427Z,14.00
2022-09-15T04:29:42.121Z,13.90
2022-09-15T04:32:10.217Z,14.00
2022-09-15T04:34:41.385Z,14.00
2022-09-15T04:37:09.580Z,14.00
2022-09-15T04:39:37.561Z,14.00
2022-09-15T04:42:07.820Z,14.00
2022-09-15T04:44:35.847Z,14.00
2022-09-15T04:47:05.683Z,14.00
2022-09-15T04:49:33.907Z,14.00
2022-09-15T04:52:02.464Z,14.00
2022-09-15T04:54:32.022Z,14.00
2022-09-15T04:57:00.005Z,14.10
2022-09-15T04:59:27.935Z,14.10
2022-09-15T05:01:56.247Z,14.10
2022-09-15T05:04:25.784Z,14.10
2022-09-15T05:06:53.727Z,14.10
2022-09-15T05:09:21.793Z,14.10
2022-09-15T05:11:50.250Z,14.10
2022-09-15T05:14:18.557Z,14.10
2022-09-15T05:16:46.493Z,14.10
2022-09-15T05:19:14.465Z,14.10
2022-09-15T05:21:43.772Z,14.10
2022-09-15T05:24:11.733Z,14.10
2022-09-15T05:26:39.729Z,14.10
2022-09-15T05:29:07.690Z,14.10
2022-09-15T05:31:35.921Z,14.10
2022-09-15T05:34:06.041Z,14.10
2022-09-15T05:36:34.323Z,14.10
2022-09-15T05:39:03.722Z,14.10
2022-09-15T05:41:31.742Z,14.10
2022-09-15T05:44:00.151Z,14.10
2022-09-15T05:46:29.121Z,14.10
2022-09-15T05:48:59.393Z,14.10
2022-09-15T05:51:27.706Z,14.20
2022-09-15T05:53:55.664Z,14.20
2022-09-15T05:56:25.432Z,14.20
2022-09-15T05:58:53.855Z,14.20
2022-09-15T06:01:24.315Z,14.20
2022-09-15T06:03:53.022Z,14.20
2022-09-15T06:06:21.833Z,14.30
2022-09-15T06:08:55.597Z,14.30
2022-09-15T06:11:27.909Z,14.40
2022-09-15T06:13:55.890Z,14.40
2022-09-15T06:16:26.253Z,14.40
2022-09-15T06:18:55.221Z,14.40
2022-09-15T06:21:25.689Z,14.50
2022-09-15T06:23:55.036Z,14.40
2022-09-15T06:26:23.272Z,14.50
2022-09-15T06:28:54.872Z,14.50
2022-09-15T06:31:23.855Z,14.50
2022-09-15T06:33:54.383Z,14.50
2022-09-15T06:36:24.388Z,14.60
2022-09-15T06:38:52.690Z,14.60
2022-09-15T06:41:20.676Z,14.50
2022-09-15T06:43:49.662Z,14.60
2022-09-15T06:46:20.734Z,14.60
2022-09-15T06:48:49.181Z,14.60
2022-09-15T06:51:18.653Z,14.60
2022-09-15T06:53:47.488Z,14.70
2022-09-15T06:56:17.419Z,14.70
2022-09-15T06:58:46.848Z,14.80
2022-09-15T07:01:21.010Z,14.80
2022-09-15T07:03:51.180Z,14.90
2022-09-15T07:06:19.701Z,15.00
2022-09-15T07:08:48.091Z,15.10
2022-09-15T07:11:16.771Z,15.10
2022-09-15T07:13:44.925Z,15.20
2022-09-15T07:16:13.989Z,15.20
2022-09-15T07:18:43.669Z,15.30
2022-09-15T07:21:15.228Z,15.20
2022-09-15T07:23:43.865Z,15.30
2022-09-15T07:26:13.863Z,15.30
2022-09-15T07:28:45.696Z,15.30
2022-09-15T07:31:15.824Z,15.40
2022-09-15T07:33:43.836Z,15.40
2022-09-15T07:36:13.590Z,15.40
2022-09-15T07:38:44.024Z,15.40
2022-09-15T07:41:14.142Z,15.40
2022-09-15T07:43:46.872Z,15.50
2022-09-15T07:46:15.255Z,15.60
2022-09-15T07:48:45.379Z,15.80
2022-09-15T07:51:15.246Z,15.90
2022-09-15T07:53:43.222Z,15.90
2022-09-15T07:56:11.641Z,15.90
2022-09-15T07:58:39.723Z,16.00
2022-09-15T08:01:11.130Z,16.20
2022-09-15T08:03:42.403Z,16.30
2022-09-15T08:06:10.877Z,16.40
2022-09-15T08:08:40.948Z,16.50
2022-09-15T08:11:09.553Z,16.60
2022-09-15T08:13:38.116Z,16.70
2022-09-15T08:16:08.153Z,16.70
2022-09-15T08:18:36.452Z,16.70
2022-09-15T08:21:08.862Z,16.70
2022-09-15T08:23:37.354Z,16.70
2022-09-15T08:26:13.220Z,16.60
2022-09-15T08:28:44.027Z,16.70
2022-09-15T08:31:14.819Z,16.90
2022-09-15T08:33:45.777Z,17.20
2022-09-15T08:36:14.607Z,17.10
2022-09-15T08:38:44.041Z,17.00
2022-09-15T08:41:16.086Z,17.20
2022-09-15T08:43:48.977Z,17.50
2022-09-15T08:46:23.235Z,17.50
2022-09-15T08:49:00.810Z,17.50
2022-09-15T08:51:37.040Z,17.30
2022-09-15T08:54:12.056Z,17.30
2022-09-15T08:56:44.170Z,17.20
2022-09-15T08:59:15.904Z,17.20
2022-09-15T09:02:02.564Z,17.20
2022-09-15T09:04:59.440Z,17.10
2022-09-15T09:07:52.272Z,17.10
2022-09-15T09:10:27.107Z,16.90
2022-09-15T09:13:15.709Z,16.70
2022-09-15T09:15:55.076Z,16.50
2022-09-15T09:18:58.862Z,16.30
2022-09-15T09:21:30.986Z,16.10
2022-09-15T09:24:05.328Z,16.00
2022-09-15T09:26:36.134Z,16.00
2022-09-15T09:29:13.665Z,16.00
2022-09-15T09:31:42.742Z,16.00
2022-09-15T09:34:20.610Z,16.20
2022-09-15T09:36:55.066Z,16.40
2022-09-15T09:39:23.344Z,16.70
2022-09-15T09:41:51.419Z,17.00
2022-09-15T09:44:21.139Z,17.10
2022-09-15T09:46:49.878Z,17.20
2022-09-15T09:49:23.561Z,17.30
2022-09-15T09:51:53.306Z,17.30
2022-09-15T09:54:27.233Z,17.30
2022-09-15T09:59:42.283Z,17.20
2022-09-15T10:02:20.932Z,17.20
2022-09-15T10:04:51.127Z,17.10
2022-09-15T10:07:23.292Z,17.10
2022-09-15T10:09:57.026Z,17.00
2022-09-15T10:12:30.761Z,17.00
2022-09-15T10:15:03.585Z,17.10
2022-09-15T10:17:50.521Z,17.10
2022-09-15T10:20:32.602Z,17.20
2022-09-15T10:23:06.690Z,17.30
2022-09-15T10:25:58.087Z,17.30
2022-09-15T10:28:26.922Z,17.30
2022-09-15T10:31:07.821Z,17.40
2022-09-15T10:33:36.742Z,17.50
2022-09-15T10:36:08.718Z,17.50
2022-09-15T10:38:43.904Z,17.70
2022-09-15T10:41:28.519Z,17.80
2022-09-15T10:44:26.662Z,17.90
2022-09-15T10:47:10.333Z,17.90
2022-09-15T10:49:53.069Z,18.10
2022-09-15T10:52:29.205Z,18.30
2022-09-15T10:55:11.295Z,18.50
2022-09-15T10:58:01.219Z,18.70
2022-09-15T11:00:35.074Z,18.90
2022-09-15T11:03:36.596Z,19.10
2022-09-15T11:06:14.860Z,19.10
2022-09-15T11:08:53.171Z,19.10
2022-09-15T11:11:33.249Z,18.90
2022-09-15T11:14:17.630Z,18.50
2022-09-15T11:16:59.110Z,18.30
2022-09-15T11:19:56.300Z,17.90
2022-09-15T11:22:30.872Z,17.80
2022-09-15T11:25:02.202Z,17.70
2022-09-15T11:27:35.282Z,17.60
2022-09-15T11:30:06.970Z,17.70
2022-09-15T11:32:44.888Z,17.70
2022-09-15T11:35:37.875Z,17.50
2022-09-15T11:38:18.140Z,17.50
2022-09-15T11:40:51.596Z,17.50
2022-09-15T11:43:28.441Z,17.60
2022-09-15T11:46:00.745Z,17.70
2022-09-15T11:48:34.478Z,17.70
2022-09-15T11:51:07.849Z,17.70
2022-09-15T11:53:41.758Z,17.90
2022-09-15T11:56:22.013Z,18.10
2022-09-15T11:59:05.955Z,18.20
2022-09-15T12:01:42.112Z,18.20
2022-09-15T12:04:15.336Z,18.20
2022-09-15T12:06:51.783Z,18.20
2022-09-15T12:09:21.738Z,18.40
2022-09-15T12:11:51.312Z,18.40
2022-09-15T12:14:28.287Z,18.50
2022-09-15T12:16:57.895Z,18.50
2022-09-15T12:19:43.518Z,18.40
2022-09-15T12:22:20.658Z,18.40
2022-09-15T12:25:00.771Z,18.20
2022-09-15T12:27:29.490Z,18.20
2022-09-15T12:30:00.224Z,18.20
2022-09-15T12:32:29.448Z,18.30
2022-09-15T12:35:28.170Z,18.30
2022-09-15T12:37:59.903Z,18.20
2022-09-15T12:40:35.593Z,18.20
2022-09-15T12:43:15.917Z,18.10
2022-09-15T12:45:54.531Z,17.90
2022-09-15T12:48:25.644Z,17.70
2022-09-15T12:50:55.951Z,17.50
2022-09-15T12:53:28.076Z,17.20
2022-09-15T12:55:59.872Z,17.10
2022-09-15T12:58:33.721Z,17.00
2022-09-15T13:01:39.434Z,17.00
2022-09-15T13:04:26.441Z,17.00
2022-09-15T13:07:35.212Z,17.00
2022-09-15T13:10:42.072Z,17.10
2022-09-15T13:13:31.221Z,17.20
2022-09-15T13:16:03.253Z,17.20
2022-09-15T13:18:33.278Z,17.30
2022-09-15T13:21:07.082Z,17.40
2022-09-15T13:23:39.869Z,17.70
2022-09-15T13:26:11.020Z,17.80
2022-09-15T13:28:41.328Z,17.90
2022-09-15T13:31:19.959Z,17.80
2022-09-15T13:40:27.644Z,17.60
2022-09-15T13:43:24.611Z,17.80
2022-09-15T13:46:07.951Z,17.90
2022-09-15T13:48:50.732Z,17.80
2022-09-15T13:51:25.366Z,17.60
2022-09-15T13:53:57.528Z,17.30
2022-09-15T13:56:29.041Z,17.30
2022-09-15T13:59:08.527Z,17.20
2022-09-15T14:01:40.703Z,17.10
2022-09-15T14:04:13.027Z,16.90
2022-09-15T14:06:43.915Z,16.70
2022-09-15T14:09:17.013Z,16.60
2022-09-15T14:11:47.980Z,16.60
2022-09-15T14:14:33.820Z,16.50
2022-09-15T14:17:03.451Z,16.60
2022-09-15T14:19:34.303Z,16.60
2022-09-15T14:22:03.616Z,16.40
2022-09-15T14:24:33.075Z,16.40
2022-09-15T14:27:09.019Z,16.40
2022-09-15T14:29:41.122Z,16.60
2022-09-15T14:32:14.678Z,16.80
2022-09-15T14:34:44.540Z,17.00
2022-09-15T14:37:20.697Z,16.90
2022-09-15T14:39:56.518Z,16.70
2022-09-15T14:42:30.865Z,16.60
2022-09-15T14:48:03.888Z,16.70
2022-09-15T14:50:33.612Z,16.80
2022-09-15T14:53:05.379Z,16.90
2022-09-15T14:55:36.234Z,17.00
2022-09-15T14:58:25.632Z,17.00
2022-09-15T15:00:58.127Z,17.00
2022-09-15T15:03:34.096Z,17.10
2022-09-15T15:06:28.519Z,17.20
2022-09-15T15:08:59.141Z,17.30
2022-09-15T15:11:28.963Z,17.30
2022-09-15T15:13:57.449Z,17.20
2022-09-15T15:16:28.273Z,17.00
2022-09-15T15:18:57.986Z,16.90
2022-09-15T15:21:37.365Z,16.90
2022-09-15T15:24:19.565Z,16.80
2022-09-15T15:26:49.128Z,16.70
2022-09-15T15:29:40.410Z,16.60
2022-09-15T15:32:14.714Z,16.60
2022-09-15T15:34:52.241Z,16.50
2022-09-15T15:37:27.318Z,16.40
2022-09-15T15:39:56.751Z,16.40
2022-09-15T15:42:25.543Z,16.30
2022-09-15T15:45:02.962Z,16.20
2022-09-15T15:47:33.175Z,16.20
2022-09-15T15:50:13.700Z,16.10
2022-09-15T15:52:43.571Z,16.00
2022-09-15T15:55:15.044Z,15.90
2022-09-15T15:57:44.232Z,15.80
2022-09-15T16:00:21.509Z,15.60
2022-09-15T16:02:50.602Z,15.50
2022-09-15T16:05:27.248Z,15.50
2022-09-15T16:10:39.395Z,15.40
2022-09-15T16:13:09.280Z,15.40
2022-09-15T16:15:39.001Z,15.50
2022-09-15T16:18:08.388Z,15.50
2022-09-15T16:20:40.457Z,15.60
2022-09-15T16:23:13.831Z,15.60
2022-09-15T16:25:50.424Z,15.60
2022-09-15T16:28:19.860Z,15.60
2022-09-15T16:31:08.505Z,15.60
2022-09-15T16:33:38.213Z,15.60
2022-09-15T16:36:12.353Z,15.70
2022-09-15T16:38:41.046Z,15.70
2022-09-15T16:41:15.689Z,15.60
2022-09-15T16:43:44.298Z,15.60
2022-09-15T16:46:13.215Z,15.60
2022-09-15T16:48:42.855Z,15.60
2022-09-15T16:51:31.646Z,15.60
2022-09-15T16:54:00.624Z,15.60
2022-09-15T16:56:28.971Z,15.60
2022-09-15T16:59:00.090Z,15.60
2022-09-15T17:01:29.018Z,15.60
2022-09-15T17:03:57.503Z,15.50
2022-09-15T17:06:26.826Z,15.50
2022-09-15T17:08:56.148Z,15.40
2022-09-15T17:11:25.426Z,15.30
2022-09-15T17:13:53.539Z,15.20
2022-09-15T17:16:22.241Z,15.10
2022-09-15T17:18:50.362Z,15.10
2022-09-15T17:21:19.687Z,15.10
2022-09-15T17:23:50.568Z,15.10
2022-09-15T17:26:20.666Z,15.10
2022-09-15T17:28:48.939Z,15.00
2022-09-15T17:31:19.031Z,14.80
2022-09-15T17:33:47.977Z,14.80
2022-09-15T17:36:16.360Z,14.80
2022-09-15T17:38:45.021Z,14.70
2022-09-15T17:41:16.703Z,14.60
2022-09-15T17:43:45.207Z,14.60
2022-09-15T17:46:13.572Z,14.60
2022-09-15T17:48:41.628Z,14.60
2022-09-15T17:51:14.279Z,14.60
2022-09-15T17:53:42.263Z,14.60
2022-09-15T17:56:10.286Z,14.50
2022-09-15T17:58:40.159Z,14.60
2022-09-15T18:01:08.215Z,14.50
2022-09-15T18:03:38.234Z,14.50
2022-09-15T18:06:08.224Z,14.40
2022-09-15T18:08:37.226Z,14.30
2022-09-15T18:11:06.766Z,14.30
2022-09-15T18:13:35.214Z,14.30
2022-09-15T18:16:07.075Z,14.30
2022-09-15T18:18:35.277Z,14.30
2022-09-15T18:21:09.648Z,14.30
2022-09-15T18:23:39.089Z,14.20
2022-09-15T18:26:07.183Z,14.20
2022-09-15T18:28:35.416Z,14.10
2022-09-15T18:31:04.777Z,14.00
2022-09-15T18:33:32.893Z,14.00
2022-09-15T18:36:01.930Z,13.90
2022-09-15T18:38:29.864Z,13.90
2022-09-15T18:40:58.275Z,13.90
2022-09-15T18:43:28.620Z,13.80
2022-09-15T18:45:59.829Z,13.80
2022-09-15T18:48:29.984Z,13.90
2022-09-15T18:50:58.670Z,13.90
2022-09-15T18:53:26.609Z,13.80
2022-09-15T18:55:55.007Z,13.70
2022-09-15T18:58:23.662Z,13.70
2022-09-15T19:00:51.924Z,13.70
2022-09-15T19:03:20.527Z,13.60
2022-09-15T19:05:50.523Z,13.60
2022-09-15T19:08:18.479Z,13.50
2022-09-15T19:10:48.218Z,13.50
2022-09-15T19:13:16.232Z,13.50
2022-09-15T19:15:44.785Z,13.40
2022-09-15T19:18:13.194Z,13.40
2022-09-15T19:20:42.767Z,13.40
2022-09-15T19:23:12.035Z,13.40
2022-09-15T19:25:42.814Z,13.40
2022-09-15T19:28:10.987Z,13.40
2022-09-15T19:30:39.128Z,13.40
2022-09-15T19:33:07.289Z,13.40
2022-09-15T19:35:35.215Z,13.40
2022-09-15T19:38:03.197Z,13.30
2022-09-15T19:40:33.301Z,13.40
2022-09-15T19:43:01.363Z,13.40
2022-09-15T19:45:29.334Z,13.40
2022-09-15T19:47:57.543Z,13.40
2022-09-15T19:50:25.551Z,13.40
2022-09-15T19:52:56.285Z,13.40
2022-09-15T19:55:28.656Z,13.30
2022-09-15T19:57:57.965Z,13.30
2022-09-15T20:00:25.909Z,13.30
2022-09-15T20:02:53.989Z,13.30
2022-09-15T20:05:21.957Z,13.40
2022-09-15T20:07:50.033Z,13.40
2022-09-15T20:10:18.196Z,13.40
2022-09-15T20:12:46.115Z,13.30
2022-09-15T20:15:15.465Z,13.40
2022-09-15T20:17:43.522Z,13.40
2022-09-15T20:20:12.497Z,13.40
2022-09-15T20:22:40.465Z,13.40
2022-09-15T20:25:08.978Z,13.40
2022-09-15T20:27:39.776Z,13.30
2022-09-15T20:30:10.307Z,13.30
2022-09-15T20:32:39.691Z,13.30
2022-09-15T20:35:07.959Z,13.30
2022-09-15T20:37:37.639Z,13.30
2022-09-15T20:40:07.924Z,13.30
2022-09-15T20:42:36.581Z,13.20
2022-09-15T20:45:05.227Z,13.10
2022-09-15T20:47:33.189Z,13.00
2022-09-15T20:50:03.222Z,12.90
2022-09-15T20:52:37.393Z,12.90
2022-09-15T20:55:06.856Z,12.90
2022-09-15T20:57:34.955Z,12.80
2022-09-15T21:00:04.741Z,12.80
2022-09-15T21:02:32.859Z,12.80
2022-09-15T21:05:02.697Z,12.80
2022-09-15T21:07:31.597Z,12.80
2022-09-15T21:09:59.743Z,12.80
2022-09-15T21:12:28.480Z,12.80
2022-09-15T21:14:57.843Z,12.80
2022-09-15T21:17:25.901Z,12.80
2022-09-15T21:19:53.865Z,12.80
2022-09-15T21:22:23.164Z,12.70
2022-09-15T21:24:51.206Z,12.80
2022-09-15T21:27:28.838Z,12.80
2022-09-15T21:29:56.931Z,12.90
2022-09-15T21:32:25.289Z,12.80
2022-09-15T21:34:53.236Z,12.80
2022-09-15T21:37:22.962Z,12.80
2022-09-15T21:39:51.012Z,12.80
2022-09-15T21:42:18.955Z,12.70
2022-09-15T21:44:46.916Z,12.70
2022-09-15T21:47:14.824Z,12.70
2022-09-15T21:49:42.756Z,12.60
2022-09-15T21:52:11.008Z,12.60
2022-09-15T21:54:40.305Z,12.50
2022-09-15T21:57:08.252Z,12.60
2022-09-15T21:59:36.668Z,12.60
2022-09-15T22:02:04.818Z,12.60
2022-09-15T22:04:32.999Z,12.60
2022-09-15T22:07:02.150Z,12.60
2022-09-15T22:09:30.169Z,12.50
2022-09-15T22:11:59.442Z,12.50
2022-09-15T22:14:27.815Z,12.50
2022-09-15T22:16:56.064Z,12.40
2022-09-15T22:19:24.220Z,12.40
2022-09-15T22:21:52.466Z,12.40
2022-09-15T22:24:20.442Z,12.50
2022-09-15T22:26:48.347Z,12.50
2022-09-15T22:29:18.053Z,12.50
2022-09-15T22:31:46.007Z,12.50
2022-09-15T22:34:14.001Z,12.40
2022-09-15T22:36:42.050Z,12.40
2022-09-15T22:39:12.528Z,12.30
2022-09-15T22:41:40.919Z,12.30
2022-09-15T22:44:20.191Z,12.30
2022-09-15T22:46:49.608Z,12.40
2022-09-15T22:49:17.770Z,12.40
2022-09-15T22:51:46.134Z,12.40
2022-09-15T22:54:14.106Z,12.40
2022-09-15T22:56:42.055Z,12.30
2022-09-15T22:59:10.227Z,12.30
2022-09-15T23:01:39.530Z,12.30
2022-09-15T23:04:07.516Z,12.30
2022-09-15T23:06:36.082Z,12.30
2022-09-15T23:09:07.536Z,12.30
2022-09-15T23:11:37.424Z,12.30
2022-09-15T23:14:05.519Z,12.30
2022-09-15T23:16:33.592Z,12.20
2022-09-15T23:19:06.364Z,12.20
2022-09-15T23:21:34.557Z,12.20
2022-09-15T23:24:02.915Z,12.20
2022-09-15T23:26:31.051Z,12.20
2022-09-15T23:28:58.988Z,12.10
2022-09-15T23:31:26.961Z,12.20
2022-09-15T23:33:55.096Z,12.20
2022-09-15T23:36:24.428Z,12.10
2022-09-15T23:38:52.370Z,12.10
2022-09-15T23:41:20.446Z,12.10
2022-09-15T23:43:48.605Z,12.00
2022-09-15T23:46:17.298Z,12.00
2022-09-15T23:48:45.412Z,12.00
2022-09-15T23:51:13.424Z,11.90
2022-09-15T23:53:42.755Z,11.90
2022-09-15T23:56:10.798Z,12.00
2022-09-15T23:58:39.533Z,12.00
